Saturday, September 20, 2014
06:04 UTC
  |  Log In   |  Register Free
Airport Search:

Skyway Estates Airport
(60G)

Skyway Estates Airport Diagram
No Airport Diagram Available

FAA data valid effective September 18, 2014 - November 13, 2014 (unless otherwise noted).

 
 
 
 
 
 
 
 
 
 
 
 
 
 

Current Aviation Weather for Skyway Estates Airport (60G)

METAR data is unavailable for 60G. The nearest METAR location is at KFPK (7.1 nm SW from 60G).

The most recent METAR observation for KFPK was updated at: 0509
METAR Summary (Translated METAR)
KFPK
200455Z AUTO 17005KT 10SM CLR 12/09 A2998 RMK AO2 T01200091
(7.1 nm SW from 60G)
KTEW
200454Z AUTO 17006KT 7SM CLR 12/10 A3000 RMK AO2 T01150101
(10.1 nm SE from 60G)
TAF Summary (Translated TAF)
KLAN
(15.8 nm NE from KFPK)
191740Z 1918/2018 17008KT P6SM SCT035 FM201000 20012KT P6SM BKN050
  Airport Weather Conditions for 60G

Current weather conditions are
not available for 60G


The nearest NOAA weather station
is at FPK, (7.1 nm SW from 60G)
  
 Current Weather at FPK
54° F
Fair
South winds at 5.8 mph
FPK NOAA Radar

Pressure: 29.98 in
Humidity: 83%
Wind: South at 5.8 MPH (5 KT)
Dew Point: 48.4°F
Visibility: 10.00 mi


Airport Weather Forecast for 60G

Translated METAR and TAF for KFPK
Translated METAR for KFPK (0558 UTC 20 September 2014)
found at http://aviationweather.gov/adds/metars/
 
METAR text: KFPK 200555Z AUTO 18006KT 10SM CLR 13/09 A2996 RMK AO2 T01330088 10150 20115 402150064
Conditions at: KFPK (CHARLOTTE , MI, US) observed 0555 UTC 20 September 2014
Temperature: 13.3°C (56°F)
Dewpoint: 8.8°C (48°F) [RH = 74%]
Pressure (altimeter): 29.96 inches Hg (1014.6 mb)
Winds: from the S (180 degrees) at 7 MPH (6 knots; 3.1 m/s)
Visibility: 10 or more miles (16+ km)
Ceiling: at least 12,000 feet AGL
Clouds: sky clear below 12,000 feet AGL
Weather: automated observation with no human augmentation;
there may or may not be significant weather present at this time
Translated TAF for KFPK

There is no translated TAF available for this airport

Find All Airport Services Find A Hotel Find A Rental Car Find A Golf Course Find A Restaurant $100 Hamburger



FBO's on the Field
FBO Company Facility Photos Services Transportation Aviation Fuel Prices: Prices include tax
Catering Weather Repair Courtesy Rental Type 100LL JetA JetA+ MOGAS 8087
 
Add another FBO Facility Photos Catering Weather Repair Courtesy Rental Type 100LL JetA JetA+ MOGAS 8087
Services Transportation Aviation Fuel Prices: Prices include tax
There are no FBO's currently reporting fuel at 60G. List your FBO now


model-print
model-print
model-print
model-print